Time;durP1;ratioP1;P1;durP2;ratioP2;P2;SDS_P1;SDS_P2;PMS_P1;PMS_P2;Temp;Humidity;BMP_temperature;BMP_pressure;BME280_temperature;BME280_humidity;BME280_pressure;Samples;Min_cycle;Max_cycle;Signal;HPM_P1;HPM_P2
2022/05/02 00:00:21;;;;;;;36.70;21.48;;;;;;;6.98;59.16;100615.00;1821041;78;25716;-73
2022/05/02 00:02:49;;;;;;;35.00;20.57;;;;;;;6.95;59.53;100611.52;1821007;78;25630;-73
2022/05/02 00:05:16;;;;;;;37.67;18.98;;;;;;;6.93;59.64;100613.16;1821182;78;26342;-73
2022/05/02 00:07:42;;;;;;;26.23;16.85;;;;;;;6.91;59.41;100609.92;1821177;78;25603;-73
2022/05/02 00:10:09;;;;;;;25.27;16.40;;;;;;;6.91;59.97;100617.98;1820838;78;27477;-73
2022/05/02 00:12:36;;;;;;;32.65;15.50;;;;;;;6.88;59.83;100612.64;1821079;78;25626;-73
2022/05/02 00:15:03;;;;;;;26.00;16.02;;;;;;;6.87;60.17;100617.74;1821080;78;25524;-73
2022/05/02 00:18:03;;;;;;;28.07;17.02;;;;;;;6.86;60.24;100620.19;1820898;78;25651;-73
2022/05/02 00:20:05;;;;;;;23.18;15.45;;;;;;;6.84;60.11;100620.18;1804403;78;25375;-72
2022/05/02 00:22:31;;;;;;;21.82;15.08;;;;;;;6.84;60.52;100625.01;1821163;78;27596;-72
2022/05/02 00:24:58;;;;;;;21.42;14.35;;;;;;;6.86;60.02;100627.42;1820759;78;33216;-72
2022/05/02 00:27:24;;;;;;;23.47;15.63;;;;;;;6.86;60.02;100627.42;1821198;78;25565;-72
2022/05/02 00:29:50;;;;;;;24.37;16.37;;;;;;;6.84;60.52;100621.52;1821021;78;25798;-73
2022/05/02 00:32:16;;;;;;;23.80;15.72;;;;;;;6.82;60.65;100627.72;1820825;78;32325;-73
2022/05/02 00:34:42;;;;;;;23.40;16.12;;;;;;;6.83;60.49;100635.52;1821143;78;27747;-73
2022/05/02 00:37:08;;;;;;;26.33;17.17;;;;;;;6.78;60.89;100615.92;1820973;78;25566;-73
2022/05/02 00:39:34;;;;;;;25.12;17.00;;;;;;;6.80;60.79;100623.17;1820890;78;25724;-73
2022/05/02 00:42:00;;;;;;;34.13;19.17;;;;;;;6.78;61.13;100622.09;1820969;78;34879;-73
2022/05/02 00:44:26;;;;;;;32.03;18.57;;;;;;;6.75;61.37;100618.61;1821152;78;25374;-73
2022/05/02 00:46:54;;;;;;;32.67;18.77;;;;;;;6.75;61.37;100618.61;1820796;78;27844;-73
2022/05/02 00:49:20;;;;;;;30.08;17.98;;;;;;;6.75;61.39;100622.64;1821018;78;25744;-74
2022/05/02 00:51:46;;;;;;;24.23;16.55;;;;;;;6.75;61.73;100619.16;1821125;78;25717;-73
2022/05/02 00:54:12;;;;;;;28.25;18.65;;;;;;;6.72;61.38;100620.49;1820749;78;25704;-73
2022/05/02 00:56:39;;;;;;;28.70;17.90;;;;;;;6.72;61.34;100618.63;1821110;78;25625;-73
2022/05/02 00:59:07;;;;;;;26.57;16.87;;;;;;;6.73;61.57;100619.42;1821071;78;27366;-73
2022/05/02 01:01:33;;;;;;;28.65;18.32;;;;;;;6.73;61.65;100623.45;1820819;78;25653;-73
2022/05/02 01:03:59;;;;;;;26.82;17.55;;;;;;;6.73;61.94;100620.77;1821013;78;25565;-72
2022/05/02 01:09:09;;;;;;;27.50;17.65;;;;;;;6.69;61.54;100613.80;1820863;78;25740;-72
2022/05/02 01:11:36;;;;;;;27.45;16.25;;;;;;;6.67;61.89;100613.80;1821134;78;27393;-72
2022/05/02 01:14:02;;;;;;;25.80;17.48;;;;;;;6.63;61.78;100615.44;1820908;78;25622;-72
2022/05/02 01:16:29;;;;;;;28.52;17.57;;;;;;;6.61;61.91;100609.53;1788911;78;25712;-73
2022/05/02 01:18:59;;;;;;;32.93;18.60;;;;;;;6.58;61.58;100614.91;1821039;78;25618;-73
2022/05/02 01:21:28;;;;;;;;;;;;;;;6.55;61.85;100614.10;1823888;78;25538;-73
2022/05/02 01:23:58;;;;;;;29.42;18.32;;;;;;;6.48;61.95;100609.02;1854509;77;27956;-73
2022/05/02 01:26:25;;;;;;;28.15;17.92;;;;;;;6.44;62.06;100605.27;1820522;78;25709;-73
2022/05/02 01:29:00;;;;;;;29.98;18.12;;;;;;;6.38;61.87;100599.64;1854675;77;25611;-73
2022/05/02 01:31:26;;;;;;;34.00;19.23;;;;;;;6.35;62.34;100607.72;1826889;78;26225;-73
2022/05/02 01:33:53;;;;;;;28.10;17.77;;;;;;;6.30;62.35;100603.70;1860933;77;25719;-73
2022/05/02 01:36:22;;;;;;;30.68;17.50;;;;;;;6.26;62.48;100608.54;1827143;78;27389;-72
2022/05/02 01:38:49;;;;;;;30.43;18.73;;;;;;;6.22;62.15;100612.31;1860663;77;25869;-72
2022/05/02 01:41:16;;;;;;;26.02;17.60;;;;;;;6.21;62.44;100614.72;1827073;78;25673;-73
2022/05/02 01:43:43;;;;;;;26.93;18.35;;;;;;;6.19;62.84;100609.37;1860815;77;25757;-73
2022/05/02 01:46:12;;;;;;;27.87;19.00;;;;;;;6.16;62.98;100610.19;1826902;78;25652;-73
2022/05/02 01:48:38;;;;;;;29.93;18.83;;;;;;;6.15;63.22;100611.25;1861182;77;27322;-73
2022/05/02 01:51:05;;;;;;;32.15;18.70;;;;;;;6.11;63.20;100604.00;1827015;78;25563;-72
2022/05/02 01:53:31;;;;;;;31.68;20.08;;;;;;;6.11;63.20;100604.00;1860643;77;25729;-72
2022/05/02 01:55:58;;;;;;;27.13;18.82;;;;;;;6.07;63.24;100606.42;1827002;78;25613;-72
2022/05/02 01:58:24;;;;;;;27.32;18.42;;;;;;;6.05;63.25;100609.13;1860931;77;25666;-72
2022/05/02 02:00:50;;;;;;;28.67;18.60;;;;;;;6.04;63.02;100609.64;1826885;78;27883;-72
2022/05/02 02:03:16;;;;;;;28.12;18.42;;;;;;;6.01;63.47;100599.98;1860841;77;25720;-72
2022/05/02 02:05:48;;;;;;;28.27;17.42;;;;;;;6.00;62.97;100606.45;1827134;78;25611;-72
2022/05/02 02:08:28;;;;;;;31.02;18.55;;;;;;;5.98;62.87;100606.16;1860542;77;26298;-72
2022/05/02 02:10:57;;;;;;;;;;;;;;;5.96;62.72;100598.92;1829921;78;25549;-71
2022/05/02 02:13:23;;;;;;;36.77;19.10;;;;;;;5.92;63.47;100604.52;1827361;78;27391;-70
2022/05/02 02:15:50;;;;;;;30.48;18.52;;;;;;;5.86;63.74;100608.84;1861004;77;25712;-73
2022/05/02 02:18:17;;;;;;;27.60;17.70;;;;;;;5.80;63.94;100601.31;1827211;78;25620;-73
2022/05/02 02:20:46;;;;;;;29.90;17.05;;;;;;;5.76;63.91;100606.97;1861464;77;25618;-73
2022/05/02 02:23:14;;;;;;;29.13;18.70;;;;;;;5.73;63.84;100612.86;1828081;78;25458;-72
2022/05/02 02:25:42;;;;;;;29.57;17.83;;;;;;;5.68;64.18;100612.31;1861868;77;27325;-72
2022/05/02 02:28:09;;;;;;;28.20;19.35;;;;;;;5.67;64.47;100617.95;1827746;78;25410;-72
2022/05/02 02:30:35;;;;;;;26.77;18.27;;;;;;;5.66;64.46;100615.81;1857550;77;25549;-72
2022/05/02 02:33:02;;;;;;;24.23;16.97;;;;;;;5.64;64.54;100616.63;1821304;78;25679;-73
2022/05/02 02:35:30;;;;;;;31.95;17.92;;;;;;;5.63;64.70;100613.66;1854847;77;25404;-73
2022/05/02 02:37:56;;;;;;;28.62;17.07;;;;;;;5.58;64.88;100613.14;1821268;78;27328;-72
2022/05/02 02:40:22;;;;;;;29.20;18.40;;;;;;;5.56;64.98;100612.58;1854715;77;25387;-73
2022/05/02 02:42:49;;;;;;;29.35;17.65;;;;;;;5.55;65.05;100613.67;1821329;78;25394;-73
2022/05/02 02:45:15;;;;;;;28.85;17.30;;;;;;;5.53;65.16;100613.66;1854866;77;25760;-73
2022/05/02 02:47:43;;;;;;;23.57;16.35;;;;;;;5.50;65.04;100616.34;1821353;78;25481;-73
2022/05/02 02:50:10;;;;;;;26.85;17.60;;;;;;;5.48;65.14;100614.98;1854863;77;27326;-73
2022/05/02 02:52:37;;;;;;;27.45;16.70;;;;;;;5.45;65.13;100619.03;1821236;78;25629;-72
2022/05/02 02:55:04;;;;;;;26.23;17.75;;;;;;;5.42;65.38;100615.53;1821487;78;25439;-72
2022/05/02 02:57:30;;;;;;;24.18;15.78;;;;;;;5.42;65.31;100617.66;1821381;78;25799;-73
2022/05/02 02:59:57;;;;;;;28.83;17.10;;;;;;;5.42;65.43;100620.89;1821495;78;25405;-73
2022/05/02 03:02:23;;;;;;;26.15;16.52;;;;;;;5.40;65.65;100624.38;1821464;78;27335;-73
2022/05/02 03:07:34;;;;;;;31.62;18.90;;;;;;;5.38;65.82;100622.48;1821556;78;25666;-74
2022/05/02 03:10:00;;;;;;;30.17;17.15;;;;;;;5.36;65.82;100615.23;1819726;78;26359;-74
2022/05/02 03:12:27;;;;;;;27.45;17.27;;;;;;;5.34;65.74;100618.19;1821495;78;25439;-73
2022/05/02 03:14:53;;;;;;;25.12;17.37;;;;;;;5.33;65.92;100622.47;1821485;78;26868;-72
2022/05/02 03:17:19;;;;;;;26.75;17.62;;;;;;;5.32;65.77;100628.38;1821359;78;32993;-73
2022/05/02 03:19:45;;;;;;;31.93;18.77;;;;;;;5.29;65.68;100619.52;1821474;78;25625;-73
2022/05/02 03:22:11;;;;;;;30.35;18.55;;;;;;;5.28;65.82;100621.95;1821447;78;25651;-73
2022/05/02 03:24:38;;;;;;;30.17;18.62;;;;;;;5.27;66.15;100618.98;1821480;78;25464;-73
2022/05/02 03:27:05;;;;;;;31.07;18.55;;;;;;;5.24;66.14;100615.48;1821443;78;27428;-72
2022/05/02 03:29:31;;;;;;;29.48;17.77;;;;;;;5.22;66.06;100618.42;1821285;78;25640;-73
2022/05/02 03:31:58;;;;;;;27.05;17.98;;;;;;;5.17;66.09;100624.33;1821417;78;25469;-73
2022/05/02 03:34:25;;;;;;;30.10;19.05;;;;;;;5.16;66.24;100630.23;1821450;78;25570;-73
2022/05/02 03:36:51;;;;;;;26.77;18.65;;;;;;;5.15;66.50;100628.61;1821466;78;25487;-73
2022/05/02 03:39:17;;;;;;;27.75;17.95;;;;;;;5.08;66.28;100626.72;1821464;78;28322;-74
2022/05/02 03:41:43;;;;;;;30.57;18.25;;;;;;;5.12;66.08;100637.17;1821393;78;33132;-74
2022/05/02 03:44:09;;;;;;;30.05;19.23;;;;;;;5.11;66.74;100630.22;1821456;78;25469;-74
2022/05/02 03:46:35;;;;;;;26.33;18.90;;;;;;;5.11;66.70;100627.53;1821427;78;26288;-74
2022/05/02 03:49:02;;;;;;;27.52;18.40;;;;;;;5.11;66.67;100628.05;1821505;78;25576;-73
2022/05/02 03:51:28;;;;;;;31.80;19.27;;;;;;;5.11;66.21;100628.88;1821458;78;28116;-73
2022/05/02 03:53:54;;;;;;;29.02;19.05;;;;;;;5.13;66.46;100623.25;1789518;78;25671;-73
2022/05/02 03:56:21;;;;;;;28.60;18.50;;;;;;;5.13;66.97;100620.57;1821368;78;25635;-73
2022/05/02 03:58:47;;;;;;;31.15;18.60;;;;;;;5.14;67.04;100622.99;1821418;78;25669;-73
2022/05/02 04:01:13;;;;;;;27.58;18.40;;;;;;;5.13;66.86;100621.91;1821461;78;25624;-73
2022/05/02 04:03:39;;;;;;;28.10;18.82;;;;;;;5.15;66.70;100624.59;1821444;78;27360;-73
2022/05/02 04:06:05;;;;;;;29.60;17.82;;;;;;;5.19;67.08;100632.39;1821308;78;33022;-73
2022/05/02 04:08:31;;;;;;;35.68;20.05;;;;;;;5.20;67.45;100629.96;1821415;78;25600;-72
2022/05/02 04:10:57;;;;;;;30.95;19.20;;;;;;;5.22;67.49;100625.12;1821395;78;25688;-73
2022/05/02 04:13:23;;;;;;;27.40;18.62;;;;;;;5.25;67.74;100626.49;1821474;78;25543;-72
2022/05/02 04:15:49;;;;;;;29.87;19.65;;;;;;;5.30;67.82;100632.41;1821398;78;27336;-72
2022/05/02 04:18:16;;;;;;;27.27;18.98;;;;;;;5.35;68.08;100629.74;1821302;78;25594;-73
2022/05/02 04:20:42;;;;;;;28.67;18.05;;;;;;;5.41;68.32;100628.66;1821442;78;25392;-72
2022/05/02 04:23:08;;;;;;;30.52;19.73;;;;;;;5.50;68.40;100634.30;1821380;78;34641;-71
2022/05/02 04:25:34;;;;;;;27.17;18.48;;;;;;;5.58;68.41;100634.61;1821479;78;25584;-71
2022/05/02 04:28:00;;;;;;;30.55;19.15;;;;;;;5.68;68.58;100636.47;1821466;78;27429;-72
2022/05/02 04:30:28;;;;;;;28.47;20.00;;;;;;;5.74;68.41;100631.94;1822862;78;25587;-72
2022/05/02 04:32:55;;;;;;;28.38;18.42;;;;;;;5.85;68.45;100636.76;1827549;78;25590;-72
2022/05/02 04:35:22;;;;;;;27.15;18.65;;;;;;;5.92;68.59;100632.72;1827469;78;26364;-72
2022/05/02 04:37:48;;;;;;;90.38;51.75;;;;;;;6.03;68.82;100636.25;1827571;78;25475;-73
2022/05/02 04:40:15;;;;;;;50.15;30.95;;;;;;;6.11;68.77;100633.02;1827568;78;27405;-72
2022/05/02 04:42:41;;;;;;;27.98;20.08;;;;;;;6.23;68.93;100635.42;1827484;78;25384;-72
2022/05/02 04:45:09;;;;;;;25.75;18.30;;;;;;;6.36;69.31;100630.02;1827594;78;25388;-73
2022/05/02 04:47:35;;;;;;;26.97;18.25;;;;;;;6.50;69.36;100635.62;1827504;78;26186;-73
2022/05/02 04:50:02;;;;;;;26.23;16.93;;;;;;;6.56;69.57;100622.98;1827575;78;25586;-72
2022/05/02 04:52:28;;;;;;;29.15;16.70;;;;;;;6.77;69.43;100629.09;1827662;78;27948;-73
2022/05/02 04:54:54;;;;;;;25.15;17.10;;;;;;;6.92;69.63;100633.05;1827385;78;33141;-72
2022/05/02 04:57:20;;;;;;;23.65;16.87;;;;;;;7.07;69.84;100627.60;1827450;78;25620;-72
2022/05/02 04:59:46;;;;;;;23.07;16.12;;;;;;;7.23;69.78;100634.24;1827440;78;26230;-73
2022/05/02 05:02:12;;;;;;;33.58;16.12;;;;;;;7.35;69.94;100623.14;1827513;78;25582;-73
2022/05/02 05:04:38;;;;;;;86.97;41.08;;;;;;;7.53;70.04;100620.34;1827465;78;27325;-73
2022/05/02 05:07:05;;;;;;;38.30;21.82;;;;;;;7.69;69.95;100624.51;1827367;78;25546;-72
2022/05/02 05:09:31;;;;;;;27.05;16.07;;;;;;;7.86;69.76;100626.25;1827491;78;25592;-73
2022/05/02 05:12:21;;;;;;;29.60;15.65;;;;;;;8.03;69.59;100621.00;1827437;78;25649;-73
2022/05/02 05:17:58;;;;;;;24.98;14.03;;;;;;;8.37;69.16;100629.56;1827423;78;27912;-71
2022/05/02 05:21:05;;;;;;;19.30;13.22;;;;;;;8.57;68.82;100630.72;1826924;78;25375;-70
2022/05/02 05:24:00;;;;;;;16.42;12.43;;;;;;;8.75;68.66;100627.00;1799540;78;25740;-70
2022/05/02 05:26:53;;;;;;;20.92;13.70;;;;;;;8.98;68.37;100626.73;1826807;78;26566;-70
2022/05/02 05:29:45;;;;;;;18.95;12.98;;;;;;;9.20;68.21;100618.62;1827412;78;25730;-71
2022/05/02 05:32:23;;;;;;;20.25;12.63;;;;;;;9.46;67.85;100629.84;1821449;78;27524;-69
2022/05/02 05:35:05;;;;;;;19.87;13.08;;;;;;;9.69;67.13;100622.20;1820060;78;25697;-70
2022/05/02 05:38:03;;;;;;;24.15;14.23;;;;;;;9.90;66.84;100621.30;1821271;78;25550;-70
2022/05/02 05:40:46;;;;;;;25.70;16.65;;;;;;;10.13;66.41;100617.42;1821273;78;26354;-71
2022/05/02 05:43:40;;;;;;;18.50;13.70;;;;;;;10.38;65.55;100618.06;1821288;78;25645;-71
2022/05/02 05:46:47;;;;;;;20.55;13.85;;;;;;;10.57;65.19;100614.73;1821275;78;28024;-70
2022/05/02 05:49:24;;;;;;;22.98;14.23;;;;;;;10.84;64.69;100617.97;1821129;78;25585;-70
2022/05/02 05:52:25;;;;;;;19.02;13.48;;;;;;;11.08;63.55;100620.17;1815739;78;25618;-70
2022/05/02 05:55:07;;;;;;;19.57;12.47;;;;;;;11.27;62.93;100622.20;1820704;78;25608;-70
2022/05/02 05:57:59;;;;;;;18.73;12.43;;;;;;;11.49;62.86;100622.78;1821206;78;25645;-70
2022/05/02 06:00:30;;;;;;;19.52;12.25;;;;;;;11.70;61.79;100622.30;1782865;80;28247;-70
2022/05/02 06:03:13;;;;;;;15.40;11.80;;;;;;;11.92;61.34;100619.59;1788260;80;25431;-71
2022/05/02 06:05:46;;;;;;;17.42;11.22;;;;;;;12.12;61.16;100626.41;1782886;80;25551;-70
2022/05/02 06:08:22;;;;;;;13.35;10.00;;;;;;;12.33;59.84;100619.87;1788415;80;25626;-69
2022/05/02 06:10:51;;;;;;;12.85;9.43;;;;;;;12.53;59.31;100616.34;1782781;80;25457;-70
2022/05/02 06:13:20;;;;;;;17.48;10.23;;;;;;;12.75;58.56;100620.09;1788369;80;28113;-70
2022/05/02 06:18:42;;;;;;;15.70;9.95;;;;;;;13.19;57.30;100619.61;1788457;80;25543;-69
2022/05/02 06:21:08;;;;;;;13.08;8.50;;;;;;;13.47;56.86;100616.61;1782885;80;25678;-69
2022/05/02 06:23:47;;;;;;;11.60;7.87;;;;;;;13.71;56.32;100617.49;1788495;79;25631;-70
2022/05/02 06:26:14;;;;;;;10.45;8.55;;;;;;;13.93;55.34;100613.77;1783007;80;27247;-69
2022/05/02 06:28:43;;;;;;;12.43;7.47;;;;;;;14.19;55.18;100604.95;1782729;80;25509;-70
2022/05/02 06:31:15;;;;;;;10.43;7.10;;;;;;;14.47;54.54;100609.16;1784622;80;25808;-71
2022/05/02 06:33:44;;;;;;;12.35;7.90;;;;;;;14.74;53.18;100607.39;1754048;81;25722;-70
2022/05/02 06:36:37;;;;;;;11.15;7.47;;;;;;;14.99;52.48;100610.27;1760787;81;25650;-71
2022/05/02 06:39:18;;;;;;;11.33;7.78;;;;;;;15.23;52.19;100604.16;1760702;81;27316;-68
2022/05/02 06:42:22;;;;;;;11.00;7.42;;;;;;;15.57;51.27;100606.36;1788264;80;25639;-71
2022/05/02 06:45:23;;;;;;;11.30;7.87;;;;;;;15.89;50.34;100610.03;1788372;80;25389;-71
2022/05/02 06:48:01;;;;;;;11.93;7.70;;;;;;;16.23;49.53;100615.09;1788300;80;25678;-72
2022/05/02 06:50:32;;;;;;;11.45;7.15;;;;;;;16.56;48.96;100606.58;1787969;80;25142;-72
2022/05/02 06:53:12;;;;;;;12.10;7.35;;;;;;;16.91;48.85;100606.92;1788394;80;28043;-71
2022/05/02 06:55:56;;;;;;;13.32;7.87;;;;;;;17.22;48.24;100608.80;1788264;80;25384;-72
2022/05/02 06:58:37;;;;;;;10.68;7.15;;;;;;;17.54;47.58;100609.70;1788456;80;25419;-71
2022/05/02 07:01:34;;;;;;;10.03;7.37;;;;;;;17.88;46.70;100608.30;1788425;80;25608;-71
2022/05/02 07:04:36;;;;;;;12.25;7.55;;;;;;;18.17;45.95;100609.05;1788355;80;25449;-71
2022/05/02 07:07:11;;;;;;;10.68;7.03;;;;;;;18.61;45.09;100608.12;1788368;80;28074;-71
2022/05/02 07:10:03;;;;;;;10.75;6.83;;;;;;;18.83;43.85;100606.70;1788276;80;25384;-70
2022/05/02 07:12:32;;;;;;;17.00;7.10;;;;;;;18.94;43.02;100614.59;1788325;80;25374;-71
2022/05/02 07:15:18;;;;;;;15.45;7.97;;;;;;;19.09;42.28;100605.32;1788433;80;26154;-70
2022/05/02 07:18:05;;;;;;;10.40;7.10;;;;;;;19.14;41.59;100605.83;1788363;80;25386;-71
2022/05/02 07:20:55;;;;;;;9.13;6.60;;;;;;;19.41;42.16;100605.39;1788367;80;27390;-71
2022/05/02 07:23:42;;;;;;;10.25;6.58;;;;;;;19.89;41.78;100602.99;1788329;80;25945;-71
2022/05/02 07:26:14;;;;;;;8.80;6.20;;;;;;;20.29;41.22;100605.23;1788061;80;25608;-71
2022/05/02 07:28:47;;;;;;;9.20;6.37;;;;;;;20.73;40.76;100608.09;1788342;80;25641;-71
2022/05/02 07:31:19;;;;;;;9.23;6.50;;;;;;;21.07;39.92;100599.92;1796927;78;25754;-72
2022/05/02 07:33:50;;;;;;;11.55;6.40;;;;;;;21.29;38.97;100603.73;1830499;78;27551;-71
2022/05/02 07:36:20;;;;;;;10.80;6.47;;;;;;;21.42;38.22;100603.70;1829852;78;25490;-72
2022/05/02 07:38:51;;;;;;;9.90;6.08;;;;;;;21.52;37.53;100601.46;1830105;78;25364;-71
2022/05/02 07:41:23;;;;;;;10.30;5.40;;;;;;;21.59;37.08;100603.72;1829175;78;25921;-71
2022/05/02 07:44:03;;;;;;;8.98;5.78;;;;;;;21.75;37.07;100599.36;1830337;78;25530;-71
2022/05/02 07:46:46;;;;;;;9.43;5.53;;;;;;;22.00;35.62;100606.49;1829045;78;27395;-73
2022/05/02 07:49:23;;;;;;;10.95;5.35;;;;;;;22.14;35.57;100603.07;1830535;78;25598;-71
2022/05/02 07:51:51;;;;;;;11.53;5.45;;;;;;;22.34;35.52;100602.87;1830279;78;25591;-70
2022/05/02 07:54:30;;;;;;;7.33;5.50;;;;;;;22.58;34.81;100602.85;1830019;78;25373;-71
2022/05/02 07:57:02;;;;;;;8.38;5.83;;;;;;;22.73;34.38;100596.25;1830394;78;25649;-72
2022/05/02 07:59:37;;;;;;;6.47;5.78;;;;;;;22.94;34.02;100596.95;1802388;78;27422;-71
2022/05/02 08:02:05;;;;;;;7.75;5.80;;;;;;;23.11;33.65;100596.86;1830481;78;25654;-72
2022/05/02 08:04:32;;;;;;;8.68;5.40;;;;;;;23.20;33.29;100583.31;1830502;78;25383;-71
2022/05/02 08:07:33;;;;;;;11.53;5.47;;;;;;;23.47;33.26;100594.23;1830505;78;25672;-71
2022/05/02 08:10:36;;;;;;;6.10;5.08;;;;;;;23.79;33.11;100589.38;1762337;81;25564;-70
2022/05/02 08:13:35;;;;;;;9.23;5.00;;;;;;;24.36;32.66;100590.02;1762562;81;27468;-72
2022/05/02 08:16:13;;;;;;;11.68;5.65;;;;;;;24.70;31.59;100592.96;1732238;82;25729;-72
2022/05/02 08:19:03;;;;;;;8.93;7.28;;;;;;;24.98;31.29;100592.89;1762101;81;25425;-71
2022/05/02 08:21:43;;;;;;;9.58;4.80;;;;;;;25.28;31.21;100590.81;1732145;82;26253;-71
2022/05/02 08:27:35;;;;;;;6.22;4.80;;;;;;;26.21;29.85;100583.30;1731900;82;27388;-70
2022/05/02 08:30:09;;;;;;;12.63;5.08;;;;;;;26.17;28.37;100584.52;1761683;81;25571;-71
2022/05/02 08:33:00;;;;;;;6.78;4.58;;;;;;;25.89;28.12;100576.60;1720421;82;25708;-70
2022/05/02 08:35:53;;;;;;;5.17;4.10;;;;;;;25.91;28.74;100574.20;1744231;82;25698;-70
2022/05/02 08:38:55;;;;;;;5.25;4.03;;;;;;;26.14;28.58;100570.90;1714358;83;25580;-70
2022/05/02 08:41:34;;;;;;;8.55;4.87;;;;;;;26.42;28.09;100569.05;1744216;82;27340;-69
2022/05/02 08:44:52;;;;;;;5.47;4.35;;;;;;;26.40;27.69;100568.07;1746623;80;25895;-70
2022/05/02 08:47:43;;;;;;;11.60;4.83;;;;;;;26.68;27.64;100566.83;1791444;80;25727;-70
2022/05/02 08:50:30;;;;;;;7.70;3.95;;;;;;;26.53;27.26;100560.03;1791441;80;25712;-70
2022/05/02 08:53:14;;;;;;;9.18;5.00;;;;;;;26.46;27.51;100565.05;1762963;80;25820;-71
2022/05/02 08:56:05;;;;;;;7.58;4.72;;;;;;;26.96;27.25;100554.63;1785811;80;28120;-70
2022/05/02 08:58:43;;;;;;;8.58;5.05;;;;;;;27.28;26.69;100554.23;1772049;80;25520;-70
2022/05/02 09:01:32;;;;;;;8.05;5.22;;;;;;;27.35;25.90;100549.19;1791433;79;26382;-71
2022/05/02 09:04:13;;;;;;;7.12;4.72;;;;;;;27.18;25.76;100546.81;1788786;79;25610;-70
2022/05/02 09:07:22;;;;;;;7.60;4.72;;;;;;;26.94;25.82;100546.71;1773889;80;25686;-71
2022/05/02 09:10:12;;;;;;;6.40;4.53;;;;;;;27.00;25.71;100547.03;1766039;80;27490;-72
2022/05/02 09:13:07;;;;;;;10.25;5.03;;;;;;;26.97;25.72;100545.08;1772685;80;25713;-70
2022/05/02 09:15:57;;;;;;;8.03;4.85;;;;;;;27.27;25.34;100540.73;1787707;80;25724;-72
2022/05/02 09:19:06;;;;;;;6.72;4.58;;;;;;;27.69;25.66;100526.84;1772390;79;25628;-72
2022/05/02 09:22:04;;;;;;;5.25;4.05;;;;;;;28.25;24.59;100524.94;1802750;79;25616;-71
2022/05/02 09:25:07;;;;;;;7.65;4.53;;;;;;;28.66;24.27;100525.80;1782331;79;27441;-71
2022/05/02 09:53:56;;;;;;;7.67;5.30;;;;;;;30.63;18.88;100506.40;1867623;76;25725;-73
2022/05/02 09:56:39;;;;;;;8.93;4.80;;;;;;;30.01;20.25;100505.67;1733678;81;25610;-71
2022/05/02 09:59:26;;;;;;;8.65;4.67;;;;;;;29.59;20.78;100495.92;1752625;81;27598;-72
2022/05/02 10:05:07;;;;;;;8.88;5.10;;;;;;;30.07;21.25;100501.11;1901415;74;26033;-73
2022/05/02 10:08:08;;;;;;;11.22;4.90;;;;;;;30.40;21.14;100495.50;1874773;74;25523;-74
2022/05/02 10:10:49;;;;;;;8.78;5.20;;;;;;;30.63;20.91;100497.22;1861226;77;25500;-74
2022/05/02 10:13:26;;;;;;;10.25;5.30;;;;;;;30.89;20.67;100498.07;1836435;77;27993;-73
2022/05/02 10:16:24;;;;;;;8.83;4.58;;;;;;;31.25;20.44;100491.42;1852515;77;25525;-71
2022/05/02 10:19:41;;;;;;;6.15;4.62;;;;;;;31.43;19.86;100489.44;1842958;77;25720;-73
2022/05/02 10:22:34;;;;;;;6.87;4.60;;;;;;;31.54;19.82;100489.13;1822042;78;25712;-73
2022/05/02 10:25:11;;;;;;;7.28;4.60;;;;;;;31.96;19.60;100477.72;1844516;77;25672;-72
2022/05/02 10:28:16;;;;;;;7.28;4.72;;;;;;;31.94;18.96;100474.00;1832140;77;28157;-71
2022/05/02 10:31:00;;;;;;;8.78;4.45;;;;;;;31.54;19.29;100467.55;1833693;77;26278;-71
2022/05/02 10:33:53;;;;;;;7.22;5.20;;;;;;;31.17;19.16;100472.69;1834726;77;25685;-72
2022/05/02 10:36:24;;;;;;;6.40;5.03;;;;;;;30.62;19.11;100465.74;1817721;77;25478;-74
2022/05/02 10:39:02;;;;;;;9.20;5.17;;;;;;;30.47;19.46;100452.81;1780230;80;25687;-74
2022/05/02 10:41:42;;;;;;;9.63;4.60;;;;;;;30.72;19.20;100451.31;1792434;80;27452;-75
2022/05/02 10:44:12;;;;;;;12.25;5.37;;;;;;;30.98;19.46;100449.34;1849203;77;25520;-74
2022/05/02 10:46:42;;;;;;;6.90;5.00;;;;;;;31.27;19.60;100447.81;1849675;77;25223;-74
2022/05/02 10:49:37;;;;;;;7.47;5.10;;;;;;;31.59;19.23;100439.02;1819254;77;25464;-75
2022/05/02 10:52:41;;;;;;;15.60;10.05;;;;;;;31.52;18.50;100436.47;1848734;77;25589;-75
2022/05/02 10:55:20;;;;;;;7.40;5.72;;;;;;;30.39;18.30;100436.72;1850552;77;28027;-74
2022/05/02 10:57:55;;;;;;;7.35;5.28;;;;;;;29.68;19.66;100436.78;1850197;77;25926;-74
2022/05/02 11:00:23;;;;;;;7.90;5.47;;;;;;;29.93;19.86;100440.94;1850046;77;25794;-74
2022/05/02 11:03:27;;;;;;;11.83;5.33;;;;;;;30.05;19.86;100435.24;1850210;77;25618;-74
2022/05/02 11:06:23;;;;;;;7.15;5.35;;;;;;;29.97;19.42;100429.09;1849843;77;25389;-74
2022/05/02 11:09:01;;;;;;;;;;;;;;;;;;;;;
2022/05/02 11:11:48;;;;;;;6.80;4.75;;;;;;;29.91;19.66;100429.45;1853509;77;26244;-74
2022/05/02 11:14:40;;;;;;;10.00;5.30;;;;;;;30.27;19.62;100418.69;1853872;77;25830;-73
2022/05/02 11:17:30;;;;;;;8.63;5.35;;;;;;;30.13;19.09;100428.25;1854058;77;25798;-73
2022/05/02 11:20:42;;;;;;;11.12;5.30;;;;;;;29.45;19.17;100425.83;1805518;77;25715;-73
2022/05/02 11:23:40;;;;;;;5.87;4.67;;;;;;;28.68;19.37;100416.23;1833232;77;27471;-73
2022/05/02 11:26:32;;;;;;;9.00;6.25;;;;;;;27.96;20.20;100421.82;1831448;78;25448;-74
2022/05/02 11:29:17;;;;;;;14.25;5.33;;;;;;;27.37;20.76;100412.87;1796788;79;25721;-74
2022/05/02 11:32:05;;;;;;;6.60;4.70;;;;;;;26.83;21.15;100415.64;1796444;79;25599;-73
2022/05/02 11:34:43;;;;;;;26.48;16.17;;;;;;;26.37;21.44;100418.38;1797307;79;25654;-75
2022/05/02 11:37:39;;;;;;;11.50;5.47;;;;;;;25.90;22.15;100414.72;1797096;79;27463;-75
2022/05/02 11:40:09;;;;;;;8.20;5.03;;;;;;;25.79;22.73;100420.95;1743949;81;25785;-74
2022/05/02 11:42:49;;;;;;;7.08;5.17;;;;;;;26.23;22.97;100408.25;1797997;79;25643;-73
2022/05/02 11:45:17;;;;;;;7.85;4.97;;;;;;;26.73;22.90;100406.28;1797363;79;26360;-73
2022/05/02 11:48:04;;;;;;;7.92;5.47;;;;;;;27.40;21.95;100398.75;1797484;79;25491;-73
2022/05/02 11:50:46;;;;;;;6.10;4.70;;;;;;;27.14;21.28;100402.51;1797424;79;27461;-72
2022/05/02 11:53:16;;;;;;;6.17;4.28;;;;;;;26.72;21.26;100395.59;1797360;79;25665;-73
2022/05/02 11:55:46;;;;;;;6.72;4.67;;;;;;;26.36;21.45;100400.97;1797244;79;25730;-72
2022/05/02 11:58:28;;;;;;;4.83;4.33;;;;;;;26.14;21.70;100401.05;1796963;79;25750;-72
2022/05/02 12:01:02;;;;;;;7.28;4.45;;;;;;;25.77;21.72;100409.50;1796687;79;25801;-73
2022/05/02 12:03:56;;;;;;;6.12;4.05;;;;;;;25.28;21.89;100401.20;1770513;79;27451;-71
2022/05/02 12:06:28;;;;;;;6.72;4.67;;;;;;;24.93;22.33;100398.86;1796109;79;25954;-72
2022/05/02 12:08:57;;;;;;;8.13;4.78;;;;;;;24.51;22.33;100395.88;1793829;80;25685;-72
2022/05/02 12:11:23;;;;;;;6.03;4.45;;;;;;;24.14;22.36;100395.81;1768472;80;25865;-74
2022/05/02 12:13:52;;;;;;;6.70;3.92;;;;;;;23.83;22.56;100380.91;1794071;80;25599;-73
2022/05/02 12:16:19;;;;;;;6.43;4.00;;;;;;;23.55;23.00;100386.64;1817388;78;27502;-72
2022/05/02 12:18:53;;;;;;;5.60;4.28;;;;;;;23.35;23.10;100384.08;1827084;78;25652;-72
2022/05/02 12:21:45;;;;;;;8.38;5.08;;;;;;;23.28;23.54;100381.50;1827124;78;25514;-71
2022/05/02 12:24:13;;;;;;;6.60;4.22;;;;;;;23.50;23.86;100374.61;1826926;78;25458;-71
2022/05/02 12:26:52;;;;;;;5.05;3.90;;;;;;;24.10;24.11;100364.66;1791185;80;25643;-73
2022/05/02 12:29:19;;;;;;;5.55;4.08;;;;;;;24.74;23.60;100360.84;1794866;79;27460;-73
2022/05/02 12:32:02;;;;;;;6.83;4.05;;;;;;;25.55;23.75;100358.46;1827122;78;25430;-72
2022/05/02 12:34:46;;;;;;;4.40;3.90;;;;;;;26.17;22.71;100350.30;1827713;78;25608;-73
2022/05/02 12:37:33;;;;;;;5.37;4.12;;;;;;;26.51;22.29;100349.47;1827299;78;25965;-72
2022/05/02 12:40:12;;;;;;;5.87;3.83;;;;;;;26.79;22.23;100340.78;1827630;78;25603;-72
2022/05/02 12:42:53;;;;;;;4.10;3.50;;;;;;;27.45;22.07;100339.14;1828205;78;28145;-72
2022/05/02 12:45:22;;;;;;;5.37;3.12;;;;;;;27.99;21.56;100343.73;1798647;78;25969;-72